sensor_id;sensor_type;location;lat;lon;timestamp;pressure;altitude;pressure_sealevel;temperature;humidity
41684;BME280;27369;52.030;4.586;2023-04-07T00:01:20;-20807.34;;;-144.41;100.00
41684;BME280;27369;52.030;4.586;2023-04-07T00:03:46;-20807.34;;;-144.41;100.00
41684;BME280;27369;52.030;4.586;2023-04-07T00:06:12;-20807.34;;;-144.41;100.00
41684;BME280;27369;52.030;4.586;2023-04-07T00:08:38;-20807.34;;;-144.41;100.00
41684;BME280;27369;52.030;4.586;2023-04-07T00:11:03;-20807.34;;;-144.41;100.00
41684;BME280;27369;52.030;4.586;2023-04-07T00:13:29;-20807.34;;;-144.41;100.00
41684;BME280;27369;52.030;4.586;2023-04-07T00:15:54;-20807.34;;;-144.41;100.00
41684;BME280;27369;52.030;4.586;2023-04-07T00:18:19;-20807.34;;;-144.41;100.00
41684;BME280;27369;52.030;4.586;2023-04-07T00:20:45;-20807.34;;;-144.41;100.00
41684;BME280;27369;52.030;4.586;2023-04-07T00:23:10;-20807.34;;;-144.41;100.00
41684;BME280;27369;52.030;4.586;2023-04-07T00:25:36;-20807.34;;;-144.41;100.00
41684;BME280;27369;52.030;4.586;2023-04-07T00:28:01;-20807.34;;;-144.41;100.00
41684;BME280;27369;52.030;4.586;2023-04-07T00:30:26;-20807.34;;;-144.41;100.00
41684;BME280;27369;52.030;4.586;2023-04-07T00:32:52;-20807.34;;;-144.41;100.00
41684;BME280;27369;52.030;4.586;2023-04-07T00:35:17;-20807.34;;;-144.41;100.00
41684;BME280;27369;52.030;4.586;2023-04-07T00:37:43;-20807.34;;;-144.41;100.00
41684;BME280;27369;52.030;4.586;2023-04-07T00:40:08;-20807.34;;;-144.41;100.00
41684;BME280;27369;52.030;4.586;2023-04-07T00:42:34;-20807.34;;;-144.41;100.00
41684;BME280;27369;52.030;4.586;2023-04-07T00:45:00;-20807.34;;;-144.41;100.00
41684;BME280;27369;52.030;4.586;2023-04-07T00:47:25;-20807.34;;;-144.41;100.00
41684;BME280;27369;52.030;4.586;2023-04-07T00:49:51;-20807.34;;;-144.41;100.00
41684;BME280;27369;52.030;4.586;2023-04-07T00:52:18;-20807.34;;;-144.41;100.00
41684;BME280;27369;52.030;4.586;2023-04-07T00:54:44;-20807.34;;;-144.41;100.00
41684;BME280;27369;52.030;4.586;2023-04-07T00:57:11;-20807.34;;;-144.41;100.00
41684;BME280;27369;52.030;4.586;2023-04-07T00:59:36;-20807.34;;;-144.41;100.00
41684;BME280;27369;52.030;4.586;2023-04-07T01:02:17;-20807.34;;;-144.41;100.00
41684;BME280;27369;52.030;4.586;2023-04-07T01:05:08;-20807.34;;;-144.41;100.00
41684;BME280;27369;52.030;4.586;2023-04-07T01:13:17;-20807.34;;;-144.41;100.00
41684;BME280;27369;52.030;4.586;2023-04-07T01:15:49;-20807.34;;;-144.41;100.00
41684;BME280;27369;52.030;4.586;2023-04-07T01:18:21;-20807.34;;;-144.41;100.00
41684;BME280;27369;52.030;4.586;2023-04-07T01:20:50;-20807.34;;;-144.41;100.00
41684;BME280;27369;52.030;4.586;2023-04-07T01:23:24;-20807.34;;;-144.41;100.00
41684;BME280;27369;52.030;4.586;2023-04-07T01:26:16;-20807.34;;;-144.41;100.00
41684;BME280;27369;52.030;4.586;2023-04-07T01:29:03;-20807.34;;;-144.41;100.00
41684;BME280;27369;52.030;4.586;2023-04-07T01:31:32;-20807.34;;;-144.41;100.00
41684;BME280;27369;52.030;4.586;2023-04-07T01:34:00;-20807.34;;;-144.41;100.00
41684;BME280;27369;52.030;4.586;2023-04-07T01:36:28;-20807.34;;;-144.41;100.00
41684;BME280;27369;52.030;4.586;2023-04-07T01:38:57;-20807.34;;;-144.41;100.00
41684;BME280;27369;52.030;4.586;2023-04-07T01:41:23;-20807.34;;;-144.41;100.00
41684;BME280;27369;52.030;4.586;2023-04-07T01:43:50;-20807.34;;;-144.41;100.00
41684;BME280;27369;52.030;4.586;2023-04-07T01:46:16;-20807.34;;;-144.41;100.00
41684;BME280;27369;52.030;4.586;2023-04-07T01:48:42;-20807.34;;;-144.41;100.00
41684;BME280;27369;52.030;4.586;2023-04-07T01:51:08;-20807.34;;;-144.41;100.00
41684;BME280;27369;52.030;4.586;2023-04-07T01:53:36;-20807.34;;;-144.41;100.00
41684;BME280;27369;52.030;4.586;2023-04-07T01:56:03;-20807.34;;;-144.41;100.00
41684;BME280;27369;52.030;4.586;2023-04-07T01:58:28;-20807.34;;;-144.41;100.00
41684;BME280;27369;52.030;4.586;2023-04-07T02:00:54;-20807.34;;;-144.41;100.00
41684;BME280;27369;52.030;4.586;2023-04-07T02:03:22;-20807.34;;;-144.41;100.00
41684;BME280;27369;52.030;4.586;2023-04-07T02:05:54;-20807.34;;;-144.41;100.00
41684;BME280;27369;52.030;4.586;2023-04-07T02:08:23;-20807.34;;;-144.41;100.00
41684;BME280;27369;52.030;4.586;2023-04-07T02:10:51;-20807.34;;;-144.41;100.00
41684;BME280;27369;52.030;4.586;2023-04-07T02:13:21;-20807.34;;;-144.41;100.00
41684;BME280;27369;52.030;4.586;2023-04-07T02:15:47;-20807.34;;;-144.41;100.00
41684;BME280;27369;52.030;4.586;2023-04-07T02:18:14;-20807.34;;;-144.41;100.00
41684;BME280;27369;52.030;4.586;2023-04-07T02:20:42;-20807.34;;;-144.41;100.00
41684;BME280;27369;52.030;4.586;2023-04-07T02:23:09;-20807.34;;;-144.41;100.00
41684;BME280;27369;52.030;4.586;2023-04-07T02:25:34;-20807.34;;;-144.41;100.00
41684;BME280;27369;52.030;4.586;2023-04-07T02:28:03;-20807.34;;;-144.41;100.00
41684;BME280;27369;52.030;4.586;2023-04-07T02:30:30;-20807.34;;;-144.41;100.00
41684;BME280;27369;52.030;4.586;2023-04-07T02:32:55;-20807.34;;;-144.41;100.00
41684;BME280;27369;52.030;4.586;2023-04-07T02:35:21;-20807.34;;;-144.41;100.00
41684;BME280;27369;52.030;4.586;2023-04-07T02:37:47;-20807.34;;;-144.41;100.00
41684;BME280;27369;52.030;4.586;2023-04-07T02:40:13;-20807.34;;;-144.41;100.00
41684;BME280;27369;52.030;4.586;2023-04-07T02:42:39;-20807.34;;;-144.41;100.00
41684;BME280;27369;52.030;4.586;2023-04-07T02:45:05;-20807.34;;;-144.41;100.00
41684;BME280;27369;52.030;4.586;2023-04-07T02:47:32;-20807.34;;;-144.41;100.00
41684;BME280;27369;52.030;4.586;2023-04-07T02:49:58;-20807.34;;;-144.41;100.00
41684;BME280;27369;52.030;4.586;2023-04-07T02:52:23;-20807.34;;;-144.41;100.00
41684;BME280;27369;52.030;4.586;2023-04-07T02:54:49;-20807.34;;;-144.41;100.00
41684;BME280;27369;52.030;4.586;2023-04-07T02:57:14;-20807.34;;;-144.41;100.00
41684;BME280;27369;52.030;4.586;2023-04-07T02:59:40;-20807.34;;;-144.41;100.00
41684;BME280;27369;52.030;4.586;2023-04-07T03:02:06;-20807.34;;;-144.41;100.00
41684;BME280;27369;52.030;4.586;2023-04-07T03:04:31;-20807.34;;;-144.41;100.00
41684;BME280;27369;52.030;4.586;2023-04-07T03:06:57;-20807.34;;;-144.41;100.00
41684;BME280;27369;52.030;4.586;2023-04-07T03:09:22;-20807.34;;;-144.41;100.00
41684;BME280;27369;52.030;4.586;2023-04-07T03:11:48;-20807.34;;;-144.41;100.00
41684;BME280;27369;52.030;4.586;2023-04-07T03:14:13;-20807.34;;;-144.41;100.00
41684;BME280;27369;52.030;4.586;2023-04-07T03:16:38;-20807.34;;;-144.41;100.00
41684;BME280;27369;52.030;4.586;2023-04-07T03:19:04;-20807.34;;;-144.41;100.00
41684;BME280;27369;52.030;4.586;2023-04-07T03:21:30;-20807.34;;;-144.41;100.00
41684;BME280;27369;52.030;4.586;2023-04-07T03:23:56;-20807.34;;;-144.41;100.00
41684;BME280;27369;52.030;4.586;2023-04-07T03:26:21;-20807.34;;;-144.41;100.00
41684;BME280;27369;52.030;4.586;2023-04-07T03:28:47;-20807.34;;;-144.41;100.00
41684;BME280;27369;52.030;4.586;2023-04-07T03:31:12;-20807.34;;;-144.41;100.00
41684;BME280;27369;52.030;4.586;2023-04-07T03:33:38;-20807.34;;;-144.41;100.00
41684;BME280;27369;52.030;4.586;2023-04-07T03:36:03;-20807.34;;;-144.41;100.00
41684;BME280;27369;52.030;4.586;2023-04-07T03:38:29;-20807.34;;;-144.41;100.00
41684;BME280;27369;52.030;4.586;2023-04-07T03:40:54;-20807.34;;;-144.41;100.00
41684;BME280;27369;52.030;4.586;2023-04-07T03:43:20;-20807.34;;;-144.41;100.00
41684;BME280;27369;52.030;4.586;2023-04-07T03:45:46;-20807.34;;;-144.41;100.00
41684;BME280;27369;52.030;4.586;2023-04-07T03:48:11;-20807.34;;;-144.41;100.00
41684;BME280;27369;52.030;4.586;2023-04-07T03:50:39;-20807.34;;;-144.41;100.00
41684;BME280;27369;52.030;4.586;2023-04-07T03:53:05;-20807.34;;;-144.41;100.00
41684;BME280;27369;52.030;4.586;2023-04-07T03:55:32;-20807.34;;;-144.41;100.00
41684;BME280;27369;52.030;4.586;2023-04-07T03:57:58;-20807.34;;;-144.41;100.00
41684;BME280;27369;52.030;4.586;2023-04-07T04:00:23;-20807.34;;;-144.41;100.00
41684;BME280;27369;52.030;4.586;2023-04-07T04:02:49;-20807.34;;;-144.41;100.00
41684;BME280;27369;52.030;4.586;2023-04-07T04:05:14;-20807.34;;;-144.41;100.00
41684;BME280;27369;52.030;4.586;2023-04-07T04:07:40;-20807.34;;;-144.41;100.00
41684;BME280;27369;52.030;4.586;2023-04-07T04:10:06;-20807.34;;;-144.41;100.00
41684;BME280;27369;52.030;4.586;2023-04-07T04:12:31;-20807.34;;;-144.41;100.00
41684;BME280;27369;52.030;4.586;2023-04-07T04:14:57;-20807.34;;;-144.41;100.00
41684;BME280;27369;52.030;4.586;2023-04-07T04:17:22;-20807.34;;;-144.41;100.00
41684;BME280;27369;52.030;4.586;2023-04-07T04:19:47;-20807.34;;;-144.41;100.00
41684;BME280;27369;52.030;4.586;2023-04-07T04:22:13;-20807.34;;;-144.41;100.00
41684;BME280;27369;52.030;4.586;2023-04-07T04:24:38;-20807.34;;;-144.41;100.00
41684;BME280;27369;52.030;4.586;2023-04-07T04:27:06;-20807.34;;;-144.41;100.00
41684;BME280;27369;52.030;4.586;2023-04-07T04:29:32;-20807.34;;;-144.41;100.00
41684;BME280;27369;52.030;4.586;2023-04-07T04:31:57;-20807.34;;;-144.41;100.00
41684;BME280;27369;52.030;4.586;2023-04-07T04:34:23;-20807.34;;;-144.41;100.00
41684;BME280;27369;52.030;4.586;2023-04-07T04:36:48;-20807.34;;;-144.41;100.00
41684;BME280;27369;52.030;4.586;2023-04-07T04:39:14;-20807.34;;;-144.41;100.00
41684;BME280;27369;52.030;4.586;2023-04-07T04:41:39;-20807.34;;;-144.41;100.00
41684;BME280;27369;52.030;4.586;2023-04-07T04:44:04;-20807.34;;;-144.41;100.00
41684;BME280;27369;52.030;4.586;2023-04-07T04:46:30;-20807.34;;;-144.41;100.00
41684;BME280;27369;52.030;4.586;2023-04-07T04:48:56;-20807.34;;;-144.41;100.00
41684;BME280;27369;52.030;4.586;2023-04-07T04:51:22;-20807.34;;;-144.41;100.00
41684;BME280;27369;52.030;4.586;2023-04-07T04:53:48;-20807.34;;;-144.41;100.00
41684;BME280;27369;52.030;4.586;2023-04-07T04:56:13;-20807.34;;;-144.41;100.00
41684;BME280;27369;52.030;4.586;2023-04-07T04:58:39;-20807.34;;;-144.41;100.00
41684;BME280;27369;52.030;4.586;2023-04-07T05:01:06;-20807.34;;;-144.41;100.00
41684;BME280;27369;52.030;4.586;2023-04-07T05:03:31;-20807.34;;;-144.41;100.00
41684;BME280;27369;52.030;4.586;2023-04-07T05:05:57;-20807.34;;;-144.41;100.00
41684;BME280;27369;52.030;4.586;2023-04-07T05:08:22;-20807.34;;;-144.41;100.00
41684;BME280;27369;52.030;4.586;2023-04-07T05:10:47;-20807.34;;;-144.41;100.00
41684;BME280;27369;52.030;4.586;2023-04-07T05:13:13;-20807.34;;;-144.41;100.00
41684;BME280;27369;52.030;4.586;2023-04-07T05:15:40;-20807.34;;;-144.41;100.00
41684;BME280;27369;52.030;4.586;2023-04-07T05:18:06;-20807.34;;;-144.41;100.00
41684;BME280;27369;52.030;4.586;2023-04-07T05:20:31;-20807.34;;;-144.41;100.00
41684;BME280;27369;52.030;4.586;2023-04-07T05:22:56;-20807.34;;;-144.41;100.00
41684;BME280;27369;52.030;4.586;2023-04-07T05:25:22;-20807.34;;;-144.41;100.00
41684;BME280;27369;52.030;4.586;2023-04-07T05:27:47;-20807.34;;;-144.41;100.00
41684;BME280;27369;52.030;4.586;2023-04-07T05:30:13;-20807.34;;;-144.41;100.00
41684;BME280;27369;52.030;4.586;2023-04-07T05:32:39;-20807.34;;;-144.41;100.00
41684;BME280;27369;52.030;4.586;2023-04-07T05:35:04;-20807.34;;;-144.41;100.00
41684;BME280;27369;52.030;4.586;2023-04-07T05:37:30;-20807.34;;;-144.41;100.00
41684;BME280;27369;52.030;4.586;2023-04-07T05:39:55;-20807.34;;;-144.41;100.00
41684;BME280;27369;52.030;4.586;2023-04-07T05:42:21;-20807.34;;;-144.41;100.00
41684;BME280;27369;52.030;4.586;2023-04-07T05:44:46;-20807.34;;;-144.41;100.00
41684;BME280;27369;52.030;4.586;2023-04-07T05:47:11;-20807.34;;;-144.41;100.00
41684;BME280;27369;52.030;4.586;2023-04-07T05:49:37;-20807.34;;;-144.41;100.00
41684;BME280;27369;52.030;4.586;2023-04-07T05:52:09;-20807.34;;;-144.41;100.00
41684;BME280;27369;52.030;4.586;2023-04-07T05:54:35;-20807.34;;;-144.41;100.00
41684;BME280;27369;52.030;4.586;2023-04-07T05:57:49;-20807.34;;;-144.41;100.00
41684;BME280;27369;52.030;4.586;2023-04-07T06:00:26;-20807.34;;;-144.41;100.00
41684;BME280;27369;52.030;4.586;2023-04-07T06:02:52;-20807.34;;;-144.41;100.00
41684;BME280;27369;52.030;4.586;2023-04-07T06:05:18;-20807.34;;;-144.41;100.00
41684;BME280;27369;52.030;4.586;2023-04-07T06:07:43;-20807.34;;;-144.41;100.00
41684;BME280;27369;52.030;4.586;2023-04-07T06:10:58;-20807.34;;;-144.41;100.00
41684;BME280;27369;52.030;4.586;2023-04-07T06:13:48;-20807.34;;;-144.41;100.00
41684;BME280;27369;52.030;4.586;2023-04-07T06:16:14;-20807.34;;;-144.41;100.00
41684;BME280;27369;52.030;4.586;2023-04-07T06:18:39;-20807.34;;;-144.41;100.00
41684;BME280;27369;52.030;4.586;2023-04-07T06:21:05;-20807.34;;;-144.41;100.00
41684;BME280;27369;52.030;4.586;2023-04-07T06:23:31;-20807.34;;;-144.41;100.00
41684;BME280;27369;52.030;4.586;2023-04-07T06:25:56;-20807.34;;;-144.41;100.00
41684;BME280;27369;52.030;4.586;2023-04-07T06:28:22;-20807.34;;;-144.41;100.00
41684;BME280;27369;52.030;4.586;2023-04-07T06:30:47;-20807.34;;;-144.41;100.00
41684;BME280;27369;52.030;4.586;2023-04-07T06:33:13;-20807.34;;;-144.41;100.00
41684;BME280;27369;52.030;4.586;2023-04-07T06:35:39;-20807.34;;;-144.41;100.00
41684;BME280;27369;52.030;4.586;2023-04-07T06:38:05;-20807.34;;;-144.41;100.00
41684;BME280;27369;52.030;4.586;2023-04-07T06:40:31;-20807.34;;;-144.41;100.00
41684;BME280;27369;52.030;4.586;2023-04-07T06:42:57;-20807.34;;;-144.41;100.00
41684;BME280;27369;52.030;4.586;2023-04-07T06:45:22;-20807.34;;;-144.41;100.00
41684;BME280;27369;52.030;4.586;2023-04-07T06:47:48;-20807.34;;;-144.41;100.00
41684;BME280;27369;52.030;4.586;2023-04-07T06:50:13;-20807.34;;;-144.41;100.00
41684;BME280;27369;52.030;4.586;2023-04-07T06:52:39;-20807.34;;;-144.41;100.00
41684;BME280;27369;52.030;4.586;2023-04-07T06:55:05;-20807.34;;;-144.41;100.00
41684;BME280;27369;52.030;4.586;2023-04-07T06:57:32;-20807.34;;;-144.41;100.00
41684;BME280;27369;52.030;4.586;2023-04-07T06:59:57;-20807.34;;;-144.41;100.00
41684;BME280;27369;52.030;4.586;2023-04-07T07:02:22;-20807.34;;;-144.41;100.00
41684;BME280;27369;52.030;4.586;2023-04-07T07:04:49;-20807.34;;;-144.41;100.00
41684;BME280;27369;52.030;4.586;2023-04-07T07:07:16;-20807.34;;;-144.41;100.00
41684;BME280;27369;52.030;4.586;2023-04-07T07:09:42;-20807.34;;;-144.41;100.00
41684;BME280;27369;52.030;4.586;2023-04-07T07:12:07;-20807.34;;;-144.41;100.00
41684;BME280;27369;52.030;4.586;2023-04-07T07:15:20;-20807.34;;;-144.41;100.00
41684;BME280;27369;52.030;4.586;2023-04-07T07:18:10;-20807.34;;;-144.41;100.00
41684;BME280;27369;52.030;4.586;2023-04-07T07:20:36;-20807.34;;;-144.41;100.00
41684;BME280;27369;52.030;4.586;2023-04-07T07:23:01;-20807.34;;;-144.41;100.00
41684;BME280;27369;52.030;4.586;2023-04-07T07:25:27;-20807.34;;;-144.41;100.00
41684;BME280;27369;52.030;4.586;2023-04-07T07:27:52;-20805.88;;;-144.41;100.00
41684;BME280;27369;52.030;4.586;2023-04-07T07:30:20;-20805.88;;;-144.41;100.00
41684;BME280;27369;52.030;4.586;2023-04-07T07:32:45;-20805.88;;;-144.41;100.00
41684;BME280;27369;52.030;4.586;2023-04-07T07:35:11;-20805.88;;;-144.41;100.00
41684;BME280;27369;52.030;4.586;2023-04-07T07:37:36;-20805.88;;;-144.41;100.00
41684;BME280;27369;52.030;4.586;2023-04-07T07:40:01;-20805.88;;;-144.41;100.00
41684;BME280;27369;52.030;4.586;2023-04-07T07:42:27;-20805.88;;;-144.41;100.00
41684;BME280;27369;52.030;4.586;2023-04-07T07:44:52;-20557.19;;;-144.41;100.00
41684;BME280;27369;52.030;4.586;2023-04-07T07:47:17;-20557.19;;;-144.41;100.00
41684;BME280;27369;52.030;4.586;2023-04-07T07:49:43;-20308.47;;;-144.41;100.00
41684;BME280;27369;52.030;4.586;2023-04-07T07:52:08;-20308.47;;;-144.41;100.00
41684;BME280;27369;52.030;4.586;2023-04-07T07:54:34;-19811.00;;;-144.41;100.00
41684;BME280;27369;52.030;4.586;2023-04-07T07:57:00;-19811.00;;;-144.41;100.00
41684;BME280;27369;52.030;4.586;2023-04-07T07:59:27;-19313.44;;;-144.41;100.00
41684;BME280;27369;52.030;4.586;2023-04-07T08:01:52;-19064.66;;;-144.41;100.00
41684;BME280;27369;52.030;4.586;2023-04-07T08:04:18;-18567.03;;;-144.41;100.00
41684;BME280;27369;52.030;4.586;2023-04-07T08:06:43;-18567.03;;;-144.41;100.00
41684;BME280;27369;52.030;4.586;2023-04-07T08:09:09;-18069.31;;;-144.41;100.00
41684;BME280;27369;52.030;4.586;2023-04-07T08:11:34;-18069.31;;;-144.41;100.00
41684;BME280;27369;52.030;4.586;2023-04-07T08:13:59;-18318.19;;;-144.41;100.00
41684;BME280;27369;52.030;4.586;2023-04-07T08:16:25;-17820.44;;;-144.41;100.00
41684;BME280;27369;52.030;4.586;2023-04-07T08:18:51;-17322.66;;;-144.41;100.00
41684;BME280;27369;52.030;4.586;2023-04-07T08:21:16;-16575.81;;;-144.41;100.00
41684;BME280;27369;52.030;4.586;2023-04-07T08:23:42;-16326.84;;;-144.41;100.00
41684;BME280;27369;52.030;4.586;2023-04-07T08:26:07;-15579.84;;;-144.41;100.00
41684;BME280;27369;52.030;4.586;2023-04-07T08:28:33;-14583.59;;;-144.41;100.00
41684;BME280;27369;52.030;4.586;2023-04-07T08:30:58;-13337.91;;;-144.41;100.00
41684;BME280;27369;52.030;4.586;2023-04-07T08:33:24;-13337.91;;;-144.41;100.00
41684;BME280;27369;52.030;4.586;2023-04-07T08:35:50;-13088.72;;;-144.41;100.00
41684;BME280;27369;52.030;4.586;2023-04-07T08:38:16;-12590.31;;;-144.41;100.00
41684;BME280;27369;52.030;4.586;2023-04-07T08:40:41;-12341.06;;;-144.41;100.00
41684;BME280;27369;52.030;4.586;2023-04-07T08:43:08;-12590.31;;;-144.41;100.00
41684;BME280;27369;52.030;4.586;2023-04-07T08:45:37;-12091.84;;;-144.41;100.00
41684;BME280;27369;52.030;4.586;2023-04-07T08:48:04;-11842.56;;;-144.41;100.00
41684;BME280;27369;52.030;4.586;2023-04-07T08:50:35;-12091.84;;;-144.41;100.00
41684;BME280;27369;52.030;4.586;2023-04-07T08:53:04;-12091.84;;;-144.41;100.00
41684;BME280;27369;52.030;4.586;2023-04-07T08:55:34;-12839.53;;;-144.41;100.00
41684;BME280;27369;52.030;4.586;2023-04-07T08:58:00;-12091.84;;;-144.41;100.00
41684;BME280;27369;52.030;4.586;2023-04-07T09:00:26;-12341.06;;;-144.41;100.00
41684;BME280;27369;52.030;4.586;2023-04-07T09:02:52;-12839.53;;;-144.41;100.00
41684;BME280;27369;52.030;4.586;2023-04-07T09:05:17;-12839.53;;;-144.41;100.00
41684;BME280;27369;52.030;4.586;2023-04-07T09:07:43;-13088.72;;;-144.41;100.00
41684;BME280;27369;52.030;4.586;2023-04-07T09:10:09;-12341.06;;;-144.41;100.00
41684;BME280;27369;52.030;4.586;2023-04-07T09:12:35;-12839.53;;;-144.41;100.00
41684;BME280;27369;52.030;4.586;2023-04-07T09:15:01;-12839.53;;;-144.41;100.00
41684;BME280;27369;52.030;4.586;2023-04-07T09:17:28;-13088.72;;;-144.41;100.00
41684;BME280;27369;52.030;4.586;2023-04-07T09:20:00;-13337.91;;;-144.41;100.00
41684;BME280;27369;52.030;4.586;2023-04-07T09:22:37;-12839.53;;;-144.41;100.00
41684;BME280;27369;52.030;4.586;2023-04-07T09:25:16;-13836.22;;;-144.41;100.00
41684;BME280;27369;52.030;4.586;2023-04-07T09:28:01;-13587.06;;;-144.41;100.00
41684;BME280;27369;52.030;4.586;2023-04-07T09:30:29;-12839.53;;;-144.41;100.00
41684;BME280;27369;52.030;4.586;2023-04-07T09:32:55;-12839.53;;;-144.41;100.00
41684;BME280;27369;52.030;4.586;2023-04-07T09:35:21;-14085.38;;;-144.41;100.00
41684;BME280;27369;52.030;4.586;2023-04-07T09:38:07;-13088.72;;;-144.41;100.00
41684;BME280;27369;52.030;4.586;2023-04-07T09:40:34;-13088.72;;;-144.41;100.00
41684;BME280;27369;52.030;4.586;2023-04-07T09:43:00;-13088.72;;;-144.41;100.00
41684;BME280;27369;52.030;4.586;2023-04-07T09:45:28;-12839.53;;;-144.41;100.00
41684;BME280;27369;52.030;4.586;2023-04-07T09:47:53;-12590.31;;;-144.41;100.00
41684;BME280;27369;52.030;4.586;2023-04-07T09:50:33;-12839.53;;;-144.41;100.00
41684;BME280;27369;52.030;4.586;2023-04-07T09:53:00;-11593.28;;;-144.41;100.00
41684;BME280;27369;52.030;4.586;2023-04-07T09:55:27;-10097.25;;;-144.41;100.00
41684;BME280;27369;52.030;4.586;2023-04-07T09:57:53;-20807.34;;;-144.41;100.00
41684;BME280;27369;52.030;4.586;2023-04-07T10:00:23;-20807.34;;;-144.41;100.00
41684;BME280;27369;52.030;4.586;2023-04-07T10:02:49;-20807.34;;;-144.41;100.00
41684;BME280;27369;52.030;4.586;2023-04-07T10:05:15;-20807.34;;;-144.41;100.00
41684;BME280;27369;52.030;4.586;2023-04-07T10:07:41;-20807.34;;;-144.41;100.00
41684;BME280;27369;52.030;4.586;2023-04-07T10:10:07;-20807.34;;;-144.41;100.00
41684;BME280;27369;52.030;4.586;2023-04-07T10:12:42;-20807.34;;;-144.41;100.00
41684;BME280;27369;52.030;4.586;2023-04-07T10:15:11;-20807.34;;;-144.41;100.00
41684;BME280;27369;52.030;4.586;2023-04-07T10:17:38;-20807.34;;;-144.41;100.00
41684;BME280;27369;52.030;4.586;2023-04-07T10:20:05;-20807.34;;;-144.41;100.00
41684;BME280;27369;52.030;4.586;2023-04-07T10:22:32;-20807.34;;;-144.41;100.00
41684;BME280;27369;52.030;4.586;2023-04-07T10:25:11;-20807.34;;;-144.41;100.00
41684;BME280;27369;52.030;4.586;2023-04-07T10:27:45;-20807.34;;;-144.41;100.00
41684;BME280;27369;52.030;4.586;2023-04-07T10:30:21;-20807.34;;;-144.41;100.00
41684;BME280;27369;52.030;4.586;2023-04-07T10:32:49;-20807.34;;;-144.41;100.00
41684;BME280;27369;52.030;4.586;2023-04-07T10:35:15;-20807.34;;;-144.41;100.00
41684;BME280;27369;52.030;4.586;2023-04-07T10:37:42;-20807.34;;;-144.41;100.00
41684;BME280;27369;52.030;4.586;2023-04-07T10:40:27;-20807.34;;;-144.41;100.00
41684;BME280;27369;52.030;4.586;2023-04-07T10:42:52;-20807.34;;;-144.41;100.00
41684;BME280;27369;52.030;4.586;2023-04-07T10:48:20;-20807.34;;;-144.41;100.00
41684;BME280;27369;52.030;4.586;2023-04-07T10:53:32;-20807.34;;;-144.41;100.00
41684;BME280;27369;52.030;4.586;2023-04-07T10:55:58;-20807.34;;;-144.41;100.00
41684;BME280;27369;52.030;4.586;2023-04-07T10:58:33;-20807.34;;;-144.41;100.00
41684;BME280;27369;52.030;4.586;2023-04-07T11:03:40;-20807.34;;;-144.41;100.00
41684;BME280;27369;52.030;4.586;2023-04-07T11:06:08;-20807.34;;;-144.41;100.00
41684;BME280;27369;52.030;4.586;2023-04-07T11:08:38;-20807.34;;;-144.41;100.00
41684;BME280;27369;52.030;4.586;2023-04-07T11:11:04;-20807.34;;;-144.41;100.00
41684;BME280;27369;52.030;4.586;2023-04-07T11:13:45;-20807.34;;;-144.41;100.00
41684;BME280;27369;52.030;4.586;2023-04-07T11:16:11;-20807.34;;;-144.41;100.00
41684;BME280;27369;52.030;4.586;2023-04-07T11:18:38;-20807.34;;;-144.41;100.00
41684;BME280;27369;52.030;4.586;2023-04-07T11:21:04;-20807.34;;;-144.41;100.00
41684;BME280;27369;52.030;4.586;2023-04-07T11:23:36;-20807.34;;;-144.41;100.00
41684;BME280;27369;52.030;4.586;2023-04-07T11:26:02;-20807.34;;;-144.41;100.00
41684;BME280;27369;52.030;4.586;2023-04-07T11:28:28;-20807.34;;;-144.41;100.00
41684;BME280;27369;52.030;4.586;2023-04-07T11:30:54;-20807.34;;;-144.41;100.00
41684;BME280;27369;52.030;4.586;2023-04-07T11:33:25;-20807.34;;;-144.41;100.00
41684;BME280;27369;52.030;4.586;2023-04-07T11:35:53;-20807.34;;;-144.41;100.00
41684;BME280;27369;52.030;4.586;2023-04-07T11:38:20;-20807.34;;;-144.41;100.00
41684;BME280;27369;52.030;4.586;2023-04-07T11:40:46;-20807.34;;;-144.41;100.00
41684;BME280;27369;52.030;4.586;2023-04-07T11:43:20;-20807.34;;;-144.41;100.00
41684;BME280;27369;52.030;4.586;2023-04-07T11:46:09;-20807.34;;;-144.41;100.00
41684;BME280;27369;52.030;4.586;2023-04-07T11:48:36;-20807.34;;;-144.41;100.00
41684;BME280;27369;52.030;4.586;2023-04-07T11:51:02;-20807.34;;;-144.41;100.00
41684;BME280;27369;52.030;4.586;2023-04-07T11:53:33;-20807.34;;;-144.41;100.00
41684;BME280;27369;52.030;4.586;2023-04-07T11:58:25;-20807.34;;;-144.41;100.00
41684;BME280;27369;52.030;4.586;2023-04-07T12:00:54;-20807.34;;;-144.41;100.00
41684;BME280;27369;52.030;4.586;2023-04-07T12:03:21;-20807.34;;;-144.41;100.00
41684;BME280;27369;52.030;4.586;2023-04-07T12:05:46;-20807.34;;;-144.41;100.00
41684;BME280;27369;52.030;4.586;2023-04-07T12:08:13;-20807.34;;;-144.41;100.00
41684;BME280;27369;52.030;4.586;2023-04-07T12:10:40;-20807.34;;;-144.41;100.00
41684;BME280;27369;52.030;4.586;2023-04-07T12:13:06;-20807.34;;;-144.41;100.00
41684;BME280;27369;52.030;4.586;2023-04-07T12:15:33;-20807.34;;;-144.41;100.00
41684;BME280;27369;52.030;4.586;2023-04-07T12:17:58;-20807.34;;;-144.41;100.00
41684;BME280;27369;52.030;4.586;2023-04-07T12:20:24;-20807.34;;;-144.41;100.00
41684;BME280;27369;52.030;4.586;2023-04-07T12:22:50;-20807.34;;;-144.41;100.00
41684;BME280;27369;52.030;4.586;2023-04-07T12:25:15;-20807.34;;;-144.41;100.00
41684;BME280;27369;52.030;4.586;2023-04-07T12:27:41;-20807.34;;;-144.41;100.00
41684;BME280;27369;52.030;4.586;2023-04-07T12:30:07;-20807.34;;;-144.41;100.00
41684;BME280;27369;52.030;4.586;2023-04-07T12:32:32;-20807.34;;;-144.41;100.00
41684;BME280;27369;52.030;4.586;2023-04-07T12:34:58;-20807.34;;;-144.41;100.00
41684;BME280;27369;52.030;4.586;2023-04-07T12:37:23;-20807.34;;;-144.41;100.00
41684;BME280;27369;52.030;4.586;2023-04-07T12:39:48;-20807.34;;;-144.41;100.00